createdAt,value
2023-01-12T00:02:17.011Z,97430.53
2023-01-12T00:04:45.650Z,97420.03
2023-01-12T00:07:16.008Z,97421.09
2023-01-12T00:09:44.143Z,97415.34
2023-01-12T00:12:13.167Z,97431.00
2023-01-12T00:14:42.812Z,97422.94
2023-01-12T00:17:12.093Z,97427.72
2023-01-12T00:19:40.554Z,97425.25
2023-01-12T00:22:16.601Z,97417.97
2023-01-12T00:24:46.287Z,97409.84
2023-01-12T00:27:16.014Z,97413.31
2023-01-12T00:29:45.966Z,97418.13
2023-01-12T00:32:16.583Z,97430.22
2023-01-12T00:34:45.227Z,97428.59
2023-01-12T00:37:13.893Z,97428.59
2023-01-12T00:39:45.808Z,97421.16
2023-01-12T00:42:42.536Z,97427.97
2023-01-12T00:45:22.725Z,97423.19
2023-01-12T00:47:51.234Z,97416.72
2023-01-12T00:50:19.941Z,97423.44
2023-01-12T00:52:48.326Z,97429.03
2023-01-12T00:55:16.728Z,97426.38
2023-01-12T00:57:44.999Z,97430.22
2023-01-12T01:00:16.107Z,97438.41
2023-01-12T01:02:44.835Z,97441.88
2023-01-12T01:05:13.559Z,97437.47
2023-01-12T01:07:42.308Z,97443.53
2023-01-12T01:10:12.429Z,97435.22
2023-01-12T01:12:40.836Z,97422.63
2023-01-12T01:15:10.070Z,97421.50
2023-01-12T01:17:39.969Z,97422.94
2023-01-12T01:20:09.101Z,97425.50
2023-01-12T01:22:37.491Z,97427.59
2023-01-12T01:25:06.613Z,97429.75
2023-01-12T01:27:35.170Z,97432.44
2023-01-12T01:30:03.915Z,97428.78
2023-01-12T01:32:32.659Z,97435.50
2023-01-12T01:35:02.816Z,97435.19
2023-01-12T01:37:31.634Z,97439.53
2023-01-12T01:39:59.981Z,97435.81
2023-01-12T01:42:30.699Z,97441.16
2023-01-12T01:44:59.917Z,97441.53
2023-01-12T01:47:36.669Z,97429.00
2023-01-12T01:50:12.082Z,97439.16
2023-01-12T01:52:43.151Z,97446.09
2023-01-12T01:55:14.649Z,97443.78
2023-01-12T01:57:45.008Z,97434.63
2023-01-12T02:00:14.100Z,97439.28
2023-01-12T02:02:43.277Z,97445.47
2023-01-12T02:05:13.378Z,97440.63
2023-01-12T02:07:42.590Z,97439.72
2023-01-12T02:10:12.598Z,97429.50
2023-01-12T02:12:59.506Z,97433.19
2023-01-12T02:15:47.794Z,97423.19
2023-01-12T02:18:21.819Z,97430.75
2023-01-12T02:21:03.748Z,97432.47
2023-01-12T02:24:02.130Z,97441.63
2023-01-12T02:27:09.553Z,97439.03
2023-01-12T02:30:05.072Z,97445.47
2023-01-12T02:32:40.575Z,97442.88
2023-01-12T02:35:17.051Z,97438.72
2023-01-12T02:37:50.666Z,97441.41
2023-01-12T02:40:25.141Z,97439.03
2023-01-12T02:42:58.876Z,97436.22
2023-01-12T02:45:38.446Z,97426.00
2023-01-12T02:48:11.711Z,97422.66
2023-01-12T02:50:45.006Z,97424.16
2023-01-12T02:53:19.879Z,97424.59
2023-01-12T02:55:48.622Z,97423.94
2023-01-12T02:58:19.279Z,97417.88
2023-01-12T03:00:50.017Z,97421.34
2023-01-12T03:03:20.911Z,97420.06
2023-01-12T03:05:51.831Z,97417.34
2023-01-12T03:08:25.829Z,97422.16
2023-01-12T03:11:12.336Z,97418.94
2023-01-12T03:13:45.506Z,97419.47
2023-01-12T03:16:16.104Z,97417.00
2023-01-12T03:19:10.759Z,97403.59
2023-01-12T03:21:41.894Z,97416.66
2023-01-12T03:24:13.533Z,97411.56
2023-01-12T03:26:45.751Z,97414.00
2023-01-12T03:29:17.619Z,97411.84
2023-01-12T03:31:46.770Z,97402.72
2023-01-12T03:34:17.181Z,97407.97
2023-01-12T03:36:49.690Z,97406.53
2023-01-12T03:39:23.324Z,97408.97
2023-01-12T03:41:58.841Z,97393.09
2023-01-12T03:44:32.047Z,97384.06
2023-01-12T03:47:13.795Z,97385.31
2023-01-12T03:49:46.405Z,97379.47
2023-01-12T03:52:16.124Z,97379.31
2023-01-12T03:54:45.332Z,97376.56
2023-01-12T03:57:15.497Z,97371.63
2023-01-12T03:59:44.507Z,97373.53
2023-01-12T04:02:14.632Z,97384.47
2023-01-12T04:04:45.671Z,97375.78
2023-01-12T04:07:17.281Z,97384.91
2023-01-12T04:09:45.727Z,97385.44
2023-01-12T04:12:15.242Z,97387.06
2023-01-12T04:14:47.934Z,97380.78
2023-01-12T04:17:17.406Z,97375.47
2023-01-12T04:19:48.803Z,97372.72
2023-01-12T04:22:34.776Z,97382.09
2023-01-12T04:25:03.338Z,97387.22
2023-01-12T04:27:31.702Z,97386.09
2023-01-12T04:30:00.106Z,97384.97
2023-01-12T04:32:28.747Z,97377.97
2023-01-12T04:34:58.674Z,97383.84
2023-01-12T04:37:27.479Z,97375.97
2023-01-12T04:39:56.508Z,97372.22
2023-01-12T04:42:48.224Z,97370.06
2023-01-12T04:45:16.985Z,97370.47
2023-01-12T04:47:46.210Z,97361.97
2023-01-12T04:50:25.342Z,97362.56
2023-01-12T04:52:54.354Z,97358.69
2023-01-12T04:55:22.900Z,97356.44
2023-01-12T04:57:51.658Z,97355.19
2023-01-12T05:00:21.678Z,97353.34
2023-01-12T05:02:50.852Z,97349.56
2023-01-12T05:05:19.439Z,97345.81
2023-01-12T05:08:03.703Z,97353.78
2023-01-12T05:10:32.439Z,97357.34
2023-01-12T05:13:16.763Z,97358.72
2023-01-12T05:15:45.596Z,97368.88
2023-01-12T05:18:15.001Z,97370.72
2023-01-12T05:20:44.069Z,97375.00
2023-01-12T05:23:14.173Z,97377.56
2023-01-12T05:25:42.723Z,97370.16
2023-01-12T05:28:11.438Z,97374.75
2023-01-12T05:30:40.240Z,97374.81
2023-01-12T05:33:16.033Z,97364.75
2023-01-12T05:35:45.024Z,97366.78
2023-01-12T05:38:15.501Z,97365.72
2023-01-12T05:40:44.370Z,97365.59
2023-01-12T05:43:32.045Z,97364.84
2023-01-12T05:46:04.624Z,97366.78
2023-01-12T05:48:33.837Z,97368.19
2023-01-12T05:51:03.258Z,97358.91
2023-01-12T05:53:35.095Z,97361.16
2023-01-12T05:56:08.113Z,97368.97
2023-01-12T05:58:36.767Z,97364.88
2023-01-12T06:01:09.065Z,97366.00
2023-01-12T06:03:38.469Z,97363.56
2023-01-12T06:06:08.265Z,97347.28
2023-01-12T06:08:38.434Z,97351.31
2023-01-12T06:11:06.943Z,97349.25
2023-01-12T06:13:53.044Z,97351.63
2023-01-12T06:16:21.914Z,97347.13
2023-01-12T06:18:50.907Z,97352.44
2023-01-12T06:21:19.671Z,97356.06
2023-01-12T06:23:49.787Z,97357.94
2023-01-12T06:26:21.445Z,97346.66
2023-01-12T06:28:50.360Z,97348.66
2023-01-12T06:31:19.648Z,97348.13
2023-01-12T06:33:48.518Z,97346.16
2023-01-12T06:36:17.632Z,97342.41
2023-01-12T06:38:46.901Z,97345.06
2023-01-12T06:41:31.342Z,97339.56
2023-01-12T06:44:00.421Z,97343.28
2023-01-12T06:46:29.228Z,97335.78
2023-01-12T06:48:58.583Z,97341.16
2023-01-12T06:51:27.984Z,97345.50
2023-01-12T06:53:56.728Z,97357.75
2023-01-12T06:56:27.273Z,97358.25
2023-01-12T06:58:57.101Z,97358.56
2023-01-12T07:01:27.406Z,97366.38
2023-01-12T07:03:56.626Z,97369.25
2023-01-12T07:06:25.928Z,97354.53
2023-01-12T07:08:54.819Z,97356.41
2023-01-12T07:11:26.841Z,97354.34
2023-01-12T07:13:58.634Z,97350.00
2023-01-12T07:16:27.640Z,97346.78
2023-01-12T07:18:57.014Z,97353.13
2023-01-12T07:21:25.935Z,97343.72
2023-01-12T07:23:55.119Z,97349.94
2023-01-12T07:26:24.552Z,97349.25
2023-01-12T07:28:53.424Z,97350.19
2023-01-12T07:31:24.166Z,97347.63
2023-01-12T07:33:56.232Z,97344.97
2023-01-12T07:36:25.955Z,97351.97
2023-01-12T07:38:58.106Z,97354.78
2023-01-12T07:41:44.917Z,97347.06
2023-01-12T07:44:15.114Z,97350.06
2023-01-12T07:46:45.828Z,97342.63
2023-01-12T07:49:15.147Z,97347.72
2023-01-12T07:51:43.973Z,97345.88
2023-01-12T07:54:12.839Z,97346.44
2023-01-12T07:56:44.388Z,97342.25
2023-01-12T07:59:16.355Z,97348.13
2023-01-12T08:01:47.060Z,97335.16
2023-01-12T08:04:16.108Z,97347.78
2023-01-12T08:06:45.171Z,97336.28
2023-01-12T08:09:13.896Z,97335.31
2023-01-12T08:11:43.189Z,97337.22
2023-01-12T08:14:22.942Z,97337.13
2023-01-12T08:16:54.769Z,97341.94
2023-01-12T08:19:25.630Z,97340.09
2023-01-12T08:21:59.550Z,97348.56
2023-01-12T08:24:30.996Z,97350.19
2023-01-12T08:27:02.203Z,97349.50
2023-01-12T08:29:34.800Z,97353.03
2023-01-12T08:34:41.341Z,97343.22
2023-01-12T08:37:12.378Z,97340.63
2023-01-12T08:39:41.634Z,97340.19
2023-01-12T08:42:13.022Z,97338.09
2023-01-12T08:44:45.122Z,97334.44
2023-01-12T08:47:20.823Z,97336.09
2023-01-12T08:49:49.746Z,97334.31
2023-01-12T08:52:19.119Z,97335.75
2023-01-12T08:54:48.395Z,97338.78
2023-01-12T08:57:19.244Z,97338.66
2023-01-12T08:59:48.170Z,97332.31
2023-01-12T09:02:18.572Z,97324.16
2023-01-12T09:04:46.885Z,97325.81
2023-01-12T09:07:17.226Z,97316.53
2023-01-12T09:09:46.178Z,97315.81
2023-01-12T09:12:14.785Z,97319.84
2023-01-12T09:14:43.976Z,97325.78
2023-01-12T09:17:12.841Z,97322.09
2023-01-12T09:19:45.767Z,97319.72
2023-01-12T09:22:15.886Z,97326.97
2023-01-12T09:24:45.467Z,97319.84
2023-01-12T09:27:14.460Z,97325.44
2023-01-12T09:29:43.812Z,97325.75
2023-01-12T09:32:12.541Z,97324.75
2023-01-12T09:34:43.324Z,97316.78
2023-01-12T09:37:12.295Z,97313.59
2023-01-12T09:39:41.271Z,97315.00
2023-01-12T09:42:35.253Z,97317.47
2023-01-12T09:45:23.185Z,97313.28
2023-01-12T09:47:53.933Z,97308.28
2023-01-12T09:50:26.105Z,97302.41
2023-01-12T09:52:57.532Z,97304.59
2023-01-12T09:55:27.510Z,97305.16
2023-01-12T09:58:20.049Z,97300.34
2023-01-12T10:00:51.624Z,97291.03
2023-01-12T10:03:27.446Z,97285.97
2023-01-12T10:06:00.539Z,97276.66
2023-01-12T10:08:32.507Z,97267.38
2023-01-12T10:11:08.842Z,97254.84
2023-01-12T10:14:21.597Z,97265.28
2023-01-12T10:17:08.879Z,97258.34
2023-01-12T10:19:44.681Z,97248.47
2023-01-12T10:22:37.431Z,97252.50
2023-01-12T10:25:25.137Z,97264.81
2023-01-12T10:27:54.993Z,97261.09
2023-01-12T10:30:27.605Z,97267.50
2023-01-12T10:32:55.991Z,97270.19
2023-01-12T10:35:26.485Z,97276.59
2023-01-12T10:37:57.764Z,97266.47
2023-01-12T10:40:29.651Z,97270.75
2023-01-12T10:43:24.063Z,97266.47
2023-01-12T10:46:07.412Z,97256.06
2023-01-12T10:48:36.333Z,97251.50
2023-01-12T10:51:07.761Z,97251.50
2023-01-12T10:53:42.666Z,97240.28
2023-01-12T10:56:16.062Z,97238.09
2023-01-12T10:58:48.502Z,97242.94
2023-01-12T11:01:17.578Z,97229.03
2023-01-12T11:03:45.904Z,97228.50
2023-01-12T11:06:24.674Z,97233.03
2023-01-12T11:08:54.715Z,97233.84
2023-01-12T11:11:30.805Z,97231.41
2023-01-12T11:14:01.014Z,97226.84
2023-01-12T11:16:33.949Z,97229.25
2023-01-12T11:19:21.447Z,97231.09
2023-01-12T11:21:52.443Z,97224.69
2023-01-12T11:24:35.586Z,97216.13
2023-01-12T11:27:09.964Z,97206.53
2023-01-12T11:29:43.892Z,97225.75
2023-01-12T11:32:18.312Z,97210.22
2023-01-12T11:34:57.186Z,97203.28
2023-01-12T11:37:25.656Z,97209.13
2023-01-12T11:40:01.816Z,97198.97
2023-01-12T11:42:49.103Z,97201.09
2023-01-12T11:45:23.815Z,97205.94
2023-01-12T11:47:54.496Z,97195.25
2023-01-12T11:50:27.936Z,97198.97
2023-01-12T11:52:57.067Z,97187.19
2023-01-12T11:55:43.417Z,97187.72
2023-01-12T11:58:19.351Z,97192.00
2023-01-12T12:01:01.058Z,97179.13
2023-01-12T12:03:50.445Z,97182.09
2023-01-12T12:06:31.654Z,97172.72
2023-01-12T12:09:09.113Z,97176.44
2023-01-12T12:11:45.019Z,97169.25
2023-01-12T12:14:28.963Z,97160.94
2023-01-12T12:17:03.526Z,97162.06
2023-01-12T12:19:36.674Z,97160.91
2023-01-12T12:22:12.499Z,97151.81
2023-01-12T12:24:56.794Z,97145.38
2023-01-12T12:27:35.143Z,97138.69
2023-01-12T12:30:25.018Z,97132.56
2023-01-12T12:32:57.380Z,97135.75
2023-01-12T12:35:41.326Z,97144.03
2023-01-12T12:38:20.956Z,97144.31
2023-01-12T12:41:16.396Z,97143.75
2023-01-12T12:44:08.931Z,97144.53
2023-01-12T12:46:43.023Z,97150.69
2023-01-12T12:49:14.469Z,97142.13
2023-01-12T12:51:43.392Z,97141.56
2023-01-12T12:54:17.171Z,97137.00
2023-01-12T12:56:46.070Z,97130.09
2023-01-12T12:59:51.955Z,97128.47
2023-01-12T13:02:41.691Z,97122.06
2023-01-12T13:05:11.398Z,97122.84
2023-01-12T13:07:45.444Z,97127.41
2023-01-12T13:10:31.301Z,97125.84
2023-01-12T13:13:05.893Z,97118.88
2023-01-12T13:15:37.719Z,97119.69
2023-01-12T13:18:10.954Z,97122.34
2023-01-12T13:20:59.720Z,97121.28
2023-01-12T13:24:27.825Z,97121.88
2023-01-12T13:26:58.833Z,97117.81
2023-01-12T13:29:44.430Z,97117.00
2023-01-12T13:32:36.862Z,97116.47
2023-01-12T13:35:24.479Z,97118.06
2023-01-12T13:37:55.814Z,97117.50
2023-01-12T13:40:28.948Z,97107.88
2023-01-12T13:43:19.816Z,97101.50
2023-01-12T13:45:53.607Z,97096.72
2023-01-12T13:48:22.478Z,97099.91
2023-01-12T13:50:54.832Z,97103.94
2023-01-12T13:53:28.692Z,97106.31
2023-01-12T13:55:59.439Z,97107.63
2023-01-12T13:58:29.028Z,97115.41
2023-01-12T14:00:59.180Z,97112.16
2023-01-12T14:03:45.311Z,97114.56
2023-01-12T14:06:21.046Z,97112.16
2023-01-12T14:09:06.583Z,97114.34
2023-01-12T14:11:48.608Z,97110.63
2023-01-12T14:14:53.182Z,97107.41
2023-01-12T14:17:43.328Z,97114.41
2023-01-12T14:20:19.777Z,97112.78
2023-01-12T14:22:49.615Z,97121.09
2023-01-12T14:25:20.660Z,97112.22
2023-01-12T14:27:53.192Z,97110.09
2023-01-12T14:30:23.126Z,97111.13
2023-01-12T14:32:51.747Z,97113.78
2023-01-12T14:35:21.352Z,97107.34
2023-01-12T14:37:53.185Z,97099.31
2023-01-12T14:40:24.715Z,97099.34
2023-01-12T14:43:11.805Z,97104.16
2023-01-12T14:46:00.077Z,97103.34
2023-01-12T14:48:30.455Z,97105.25
2023-01-12T14:51:17.703Z,97105.84
2023-01-12T14:53:48.982Z,97104.25
2023-01-12T14:56:20.155Z,97106.44
2023-01-12T14:58:49.069Z,97094.94
2023-01-12T15:01:31.023Z,97100.31
2023-01-12T15:03:59.705Z,97091.53
2023-01-12T15:06:28.176Z,97102.78
2023-01-12T15:09:01.308Z,97101.72
2023-01-12T15:11:31.331Z,97104.66
2023-01-12T15:14:00.861Z,97105.47
2023-01-12T15:16:52.014Z,97104.44
2023-01-12T15:19:37.707Z,97103.63
2023-01-12T15:22:27.881Z,97107.91
2023-01-12T15:25:26.758Z,97111.94
2023-01-12T15:27:55.138Z,97103.38
2023-01-12T15:30:23.418Z,97099.66
2023-01-12T15:32:51.804Z,97090.84
2023-01-12T15:35:23.820Z,97100.47
2023-01-12T15:37:53.148Z,97112.47
2023-01-12T15:40:23.428Z,97109.81
2023-01-12T15:42:53.352Z,97108.75
2023-01-12T15:45:34.615Z,97110.34
2023-01-12T15:48:03.241Z,97106.88
2023-01-12T15:50:31.859Z,97105.03
2023-01-12T15:53:01.751Z,97105.03
2023-01-12T15:55:35.896Z,97105.56
2023-01-12T15:58:04.475Z,97114.38
2023-01-12T16:00:33.063Z,97111.47
2023-01-12T16:03:01.564Z,97108.00
2023-01-12T16:05:30.436Z,97097.56
2023-01-12T16:07:59.010Z,97101.31
2023-01-12T16:10:30.287Z,97092.75
2023-01-12T16:13:02.094Z,97098.66
2023-01-12T16:15:31.642Z,97094.38
2023-01-12T16:18:00.180Z,97099.19
2023-01-12T16:20:28.631Z,97090.63
2023-01-12T16:22:57.391Z,97093.31
2023-01-12T16:25:26.157Z,97086.38
2023-01-12T16:28:00.621Z,97081.28
2023-01-12T16:30:28.820Z,97077.28
2023-01-12T16:32:58.918Z,97085.31
2023-01-12T16:35:27.006Z,97081.56
2023-01-12T16:37:55.652Z,97075.16
2023-01-12T16:40:23.844Z,97083.72
2023-01-12T16:42:52.194Z,97073.53
2023-01-12T16:45:21.891Z,97076.75
2023-01-12T16:47:50.308Z,97074.34
2023-01-12T16:50:18.961Z,97068.19
2023-01-12T16:52:47.837Z,97070.38
2023-01-12T16:55:16.556Z,97065.03
2023-01-12T16:57:45.079Z,97067.16
2023-01-12T17:00:14.203Z,97065.03
2023-01-12T17:02:44.020Z,97057.81
2023-01-12T17:05:12.365Z,97060.50
2023-01-12T17:07:40.580Z,97061.81
2023-01-12T17:10:09.696Z,97056.22
2023-01-12T17:12:38.341Z,97060.75
2023-01-12T17:15:24.544Z,97053.81
2023-01-12T17:17:54.906Z,97059.16
2023-01-12T17:20:23.273Z,97062.09
2023-01-12T17:22:52.170Z,97064.25
2023-01-12T17:25:20.297Z,97057.56
2023-01-12T17:27:48.399Z,97057.03
2023-01-12T17:30:17.013Z,97052.22
2023-01-12T17:32:45.783Z,97050.59
2023-01-12T17:35:15.479Z,97052.22
2023-01-12T17:37:43.558Z,97056.25
2023-01-12T17:40:12.864Z,97054.34
2023-01-12T17:42:58.850Z,97058.09
2023-01-12T17:45:27.183Z,97057.56
2023-01-12T17:47:55.833Z,97051.16
2023-01-12T17:50:25.485Z,97054.63
2023-01-12T17:52:54.318Z,97058.09
2023-01-12T17:55:22.953Z,97058.09
2023-01-12T17:57:51.124Z,97049.00
2023-01-12T18:00:20.264Z,97063.44
2023-01-12T18:02:48.890Z,97059.44
2023-01-12T18:05:17.099Z,97045.28
2023-01-12T18:07:46.703Z,97051.44
2023-01-12T18:10:14.996Z,97052.25
2023-01-12T18:12:43.182Z,97047.69
2023-01-12T18:15:12.434Z,97048.50
2023-01-12T18:17:40.557Z,97047.94
2023-01-12T18:20:09.367Z,97043.41
2023-01-12T18:22:37.751Z,97043.41
2023-01-12T18:25:08.247Z,97042.59
2023-01-12T18:27:36.452Z,97037.81
2023-01-12T18:30:05.365Z,97038.31
2023-01-12T18:32:33.786Z,97035.63
2023-01-12T18:35:04.489Z,97026.31
2023-01-12T18:37:33.082Z,97028.19
2023-01-12T18:40:01.627Z,97031.41
2023-01-12T18:42:49.257Z,97023.38
2023-01-12T18:45:17.835Z,97022.84
2023-01-12T18:48:24.258Z,97015.91
2023-01-12T18:51:11.770Z,97015.66
2023-01-12T18:53:41.820Z,97006.28
2023-01-12T18:56:10.390Z,97006.06
2023-01-12T18:58:42.867Z,96999.66
2023-01-12T19:01:12.859Z,97007.66
2023-01-12T19:03:41.911Z,96999.91
2023-01-12T19:06:22.640Z,96994.28
2023-01-12T19:09:09.952Z,96987.09
2023-01-12T19:11:39.141Z,96991.63
2023-01-12T19:14:26.521Z,96989.25
2023-01-12T19:17:12.872Z,96978.59
2023-01-12T19:19:41.399Z,96973.78
2023-01-12T19:22:27.508Z,96979.66
2023-01-12T19:25:13.526Z,96974.31
2023-01-12T19:27:59.999Z,96975.13
2023-01-12T19:30:30.517Z,96966.03
2023-01-12T19:32:59.630Z,96966.31
2023-01-12T19:35:28.280Z,96960.44
2023-01-12T19:37:56.760Z,96949.22
2023-01-12T19:40:32.220Z,96951.09
2023-01-12T19:43:13.739Z,96954.56
2023-01-12T19:45:44.756Z,96949.25
2023-01-12T19:48:15.758Z,96947.63
2023-01-12T19:50:44.951Z,96958.31
2023-01-12T19:53:14.982Z,96949.50
2023-01-12T19:55:43.900Z,96942.03
2023-01-12T19:58:12.550Z,96952.47
2023-01-12T20:00:45.163Z,96944.97
2023-01-12T20:03:14.584Z,96955.13
2023-01-12T20:05:43.882Z,96952.44
2023-01-12T20:08:12.452Z,96951.66
2023-01-12T20:10:41.234Z,96955.13
2023-01-12T20:13:11.958Z,96944.47
2023-01-12T20:15:41.480Z,96948.19
2023-01-12T20:18:10.940Z,96948.44
2023-01-12T20:20:40.754Z,96942.28
2023-01-12T20:23:09.026Z,96941.78
2023-01-12T20:25:37.266Z,96938.81
2023-01-12T20:28:05.826Z,96945.25
2023-01-12T20:30:38.528Z,96941.25
2023-01-12T20:33:07.626Z,96935.91
2023-01-12T20:35:38.678Z,96940.19
2023-01-12T20:38:13.199Z,96944.97
2023-01-12T20:40:41.881Z,96943.38
2023-01-12T20:43:11.588Z,96941.78
2023-01-12T20:45:41.640Z,96935.38
2023-01-12T20:48:13.237Z,96937.00
2023-01-12T20:50:46.784Z,96940.19
2023-01-12T20:53:16.264Z,96945.53
2023-01-12T20:55:45.192Z,96934.06
2023-01-12T20:58:13.742Z,96932.19
2023-01-12T21:00:42.710Z,96936.47
2023-01-12T21:03:11.059Z,96928.75
2023-01-12T21:05:42.989Z,96926.63
2023-01-12T21:08:13.729Z,96930.09
2023-01-12T21:10:50.705Z,96927.44
2023-01-12T21:13:19.262Z,96930.88
2023-01-12T21:15:47.845Z,96931.69
2023-01-12T21:18:16.094Z,96933.28
2023-01-12T21:20:44.711Z,96931.16
2023-01-12T21:23:14.535Z,96934.09
2023-01-12T21:25:43.940Z,96926.88
2023-01-12T21:28:12.768Z,96935.13
2023-01-12T21:30:41.509Z,96923.16
2023-01-12T21:33:10.640Z,96924.75
2023-01-12T21:35:39.126Z,96930.09
2023-01-12T21:38:07.972Z,96931.69
2023-01-12T21:40:38.484Z,96931.69
2023-01-12T21:43:08.664Z,96933.84
2023-01-12T21:45:37.451Z,96931.97
2023-01-12T21:48:06.189Z,96928.22
2023-01-12T21:50:35.387Z,96922.38
2023-01-12T21:53:04.790Z,96919.72
2023-01-12T21:55:34.148Z,96915.72
2023-01-12T21:58:04.105Z,96909.31
2023-01-12T22:00:32.736Z,96908.78
2023-01-12T22:03:00.936Z,96912.50
2023-01-12T22:05:29.236Z,96919.97
2023-01-12T22:07:58.461Z,96914.91
2023-01-12T22:10:30.637Z,96918.91
2023-01-12T22:13:02.555Z,96926.09
2023-01-12T22:15:34.097Z,96931.44
2023-01-12T22:18:02.847Z,96922.63
2023-01-12T22:20:31.788Z,96919.44
2023-01-12T22:23:01.027Z,96915.41
2023-01-12T22:25:29.659Z,96922.34
2023-01-12T22:27:58.866Z,96926.34
2023-01-12T22:30:27.949Z,96925.78
2023-01-12T22:32:58.241Z,96916.72
2023-01-12T22:35:27.049Z,96923.66
2023-01-12T22:37:55.939Z,96929.50
2023-01-12T22:40:24.435Z,96916.47
2023-01-12T22:43:11.249Z,96921.00
2023-01-12T22:45:40.785Z,96918.06
2023-01-12T22:48:11.588Z,96906.31
2023-01-12T22:50:40.521Z,96895.41
2023-01-12T22:53:09.049Z,96897.00
2023-01-12T22:55:40.379Z,96892.19
2023-01-12T22:58:09.350Z,96895.44
2023-01-12T23:00:39.978Z,96893.81
2023-01-12T23:03:11.330Z,96893.28
2023-01-12T23:05:45.929Z,96893.28
2023-01-12T23:08:15.853Z,96889.56
2023-01-12T23:10:45.663Z,96888.50
2023-01-12T23:13:19.368Z,96891.69
2023-01-12T23:15:50.810Z,96892.75
2023-01-12T23:18:22.414Z,96890.88
2023-01-12T23:20:51.462Z,96882.63
2023-01-12T23:23:20.542Z,96879.44
2023-01-12T23:25:49.859Z,96881.06
2023-01-12T23:28:19.372Z,96878.38
2023-01-12T23:30:48.529Z,96883.97
2023-01-12T23:33:17.468Z,96875.44
2023-01-12T23:35:47.793Z,96881.88
2023-01-12T23:38:17.748Z,96882.63
2023-01-12T23:40:46.903Z,96881.06
2023-01-12T23:43:15.771Z,96884.78
2023-01-12T23:45:46.601Z,96877.59
2023-01-12T23:48:15.704Z,96875.72
2023-01-12T23:50:44.461Z,96880.00
2023-01-12T23:53:15.152Z,96878.41
2023-01-12T23:55:44.624Z,96867.22
2023-01-12T23:58:13.451Z,96859.47
